createdAt,value
2019-05-18T00:00:28.892Z,86.09
2019-05-18T00:01:29.037Z,86.40
2019-05-18T00:02:29.933Z,85.47
2019-05-18T00:03:29.437Z,85.85
2019-05-18T00:04:29.614Z,86.09
2019-05-18T00:05:29.762Z,85.58
2019-05-18T00:06:29.919Z,85.64
2019-05-18T00:07:30.940Z,85.23
2019-05-18T00:08:30.302Z,85.44
2019-05-18T00:09:30.406Z,84.20
2019-05-18T00:10:30.945Z,83.45
2019-05-18T00:11:30.674Z,84.20
2019-05-18T00:12:30.832Z,84.00
2019-05-18T00:13:31.992Z,83.69
2019-05-18T00:14:31.212Z,84.04
2019-05-18T00:15:31.385Z,84.45
2019-05-18T00:16:31.562Z,84.76
2019-05-18T00:17:31.727Z,85.62
2019-05-18T00:18:31.879Z,86.24
2019-05-18T00:19:32.062Z,86.75
2019-05-18T00:20:32.211Z,87.20
2019-05-18T00:21:32.390Z,88.17
2019-05-18T00:22:32.580Z,88.33
2019-05-18T00:23:32.731Z,87.82
2019-05-18T00:24:32.892Z,88.68
2019-05-18T00:25:33.045Z,88.84
2019-05-18T00:26:33.175Z,88.33
2019-05-18T00:27:33.350Z,88.12
2019-05-18T00:28:34.449Z,88.64
2019-05-18T00:29:33.690Z,87.88
2019-05-18T00:30:33.851Z,86.09
2019-05-18T00:31:34.001Z,85.23
2019-05-18T00:32:34.190Z,84.00
2019-05-18T00:33:34.437Z,84.52
2019-05-18T00:34:34.501Z,85.03
2019-05-18T00:35:34.671Z,84.37
2019-05-18T00:36:34.848Z,82.79
2019-05-18T00:37:35.010Z,83.51
2019-05-18T00:38:35.151Z,83.06
2019-05-18T00:39:35.295Z,82.21
2019-05-18T00:40:35.489Z,82.48
2019-05-18T00:41:35.680Z,83.25
2019-05-18T00:42:35.892Z,82.40
2019-05-18T00:43:35.990Z,81.34
2019-05-18T00:44:36.158Z,79.46
2019-05-18T00:45:36.313Z,78.61
2019-05-18T00:46:37.444Z,78.16
2019-05-18T00:47:41.481Z,77.75
2019-05-18T00:48:38.730Z,76.39
2019-05-18T00:49:36.837Z,76.50
2019-05-18T00:50:37.937Z,75.74
2019-05-18T00:51:37.233Z,75.13
2019-05-18T00:52:37.961Z,74.35
2019-05-18T00:53:37.618Z,73.33
2019-05-18T00:54:37.777Z,73.74
2019-05-18T00:55:37.945Z,73.23
2019-05-18T00:56:38.114Z,73.23
2019-05-18T00:57:38.320Z,73.84
2019-05-18T00:58:38.496Z,73.13
2019-05-18T00:59:39.445Z,73.80
2019-05-18T01:00:38.830Z,73.02
2019-05-18T01:01:39.031Z,73.10
2019-05-18T01:02:39.208Z,73.23
2019-05-18T01:03:39.372Z,73.54
2019-05-18T01:04:39.537Z,73.13
2019-05-18T01:05:39.717Z,73.43
2019-05-18T01:06:39.881Z,72.92
2019-05-18T01:07:40.013Z,73.02
2019-05-18T01:08:40.151Z,73.13
2019-05-18T01:09:40.324Z,73.23
2019-05-18T01:10:40.477Z,73.47
2019-05-18T01:11:40.644Z,73.84
2019-05-18T01:12:40.856Z,73.33
2019-05-18T01:13:40.984Z,73.43
2019-05-18T01:14:41.148Z,73.19
2019-05-18T01:15:41.311Z,72.82
2019-05-18T01:16:41.973Z,72.11
2019-05-18T01:17:56.157Z,72.11
2019-05-18T01:18:42.787Z,71.91
2019-05-18T01:19:41.911Z,72.82
2019-05-18T01:20:42.084Z,72.28
2019-05-18T01:21:42.246Z,72.52
2019-05-18T01:22:42.431Z,73.13
2019-05-18T01:23:42.600Z,73.33
2019-05-18T01:24:42.771Z,73.16
2019-05-18T01:25:43.446Z,73.97
2019-05-18T01:26:43.088Z,73.16
2019-05-18T01:27:43.242Z,73.02
2019-05-18T01:28:43.435Z,73.54
2019-05-18T01:29:43.614Z,72.82
2019-05-18T01:30:43.795Z,73.13
2019-05-18T01:31:44.006Z,73.23
2019-05-18T01:32:44.203Z,73.02
2019-05-18T01:33:44.467Z,73.23
2019-05-18T01:34:44.521Z,73.13
2019-05-18T01:35:44.710Z,72.96
2019-05-18T01:36:44.867Z,72.62
2019-05-18T01:37:46.040Z,72.99
2019-05-18T01:38:45.206Z,73.91
2019-05-18T01:39:45.378Z,74.45
2019-05-18T01:40:45.588Z,74.86
2019-05-18T01:41:45.780Z,75.75
2019-05-18T01:42:45.964Z,75.99
2019-05-18T01:43:46.150Z,75.99
2019-05-18T01:44:46.328Z,76.94
2019-05-18T01:45:46.553Z,77.66
2019-05-18T01:46:46.730Z,78.17
2019-05-18T01:47:46.923Z,77.35
2019-05-18T01:48:47.113Z,77.86
2019-05-18T01:49:47.338Z,78.78
2019-05-18T01:50:47.513Z,78.82
2019-05-18T01:51:47.708Z,79.60
2019-05-18T01:52:48.451Z,78.75
2019-05-18T01:53:48.456Z,77.89
2019-05-18T01:54:48.243Z,76.36
2019-05-18T01:55:48.412Z,77.22
2019-05-18T01:56:48.601Z,78.09
2019-05-18T01:57:49.465Z,76.87
2019-05-18T01:58:49.966Z,76.67
2019-05-18T01:59:49.456Z,76.97
2019-05-18T02:00:49.369Z,76.93
2019-05-18T02:01:49.551Z,76.56
2019-05-18T02:02:49.722Z,76.12
2019-05-18T02:03:49.886Z,76.53
2019-05-18T02:04:50.040Z,77.00
2019-05-18T02:05:50.177Z,76.19
2019-05-18T02:06:50.388Z,75.57
2019-05-18T02:07:51.605Z,75.34
2019-05-18T02:08:50.978Z,75.30
2019-05-18T02:09:50.868Z,74.69
2019-05-18T02:10:51.007Z,74.99
2019-05-18T02:11:51.176Z,75.03
2019-05-18T02:12:51.378Z,75.13
2019-05-18T02:13:51.574Z,74.49
2019-05-18T02:14:51.741Z,74.35
2019-05-18T02:15:51.926Z,74.08
2019-05-18T02:16:52.054Z,73.23
2019-05-18T02:17:52.189Z,73.33
2019-05-18T02:18:52.379Z,73.64
2019-05-18T02:19:53.473Z,73.88
2019-05-18T02:20:52.746Z,73.88
2019-05-18T02:21:52.919Z,73.67
2019-05-18T02:22:53.061Z,74.08
2019-05-18T02:23:53.224Z,74.49
2019-05-18T02:24:53.394Z,74.83
2019-05-18T02:25:53.575Z,74.62
2019-05-18T02:26:54.460Z,75.54
2019-05-18T02:27:53.973Z,75.88
2019-05-18T02:28:54.960Z,76.90
2019-05-18T02:29:54.464Z,77.89
2019-05-18T02:30:54.514Z,78.00
2019-05-18T02:31:54.700Z,77.89
2019-05-18T02:32:54.848Z,77.96
2019-05-18T02:33:55.019Z,77.55
2019-05-18T02:34:55.469Z,78.20
2019-05-18T02:35:55.366Z,77.69
2019-05-18T02:36:55.520Z,78.64
2019-05-18T02:37:55.662Z,78.68
2019-05-18T02:38:55.802Z,78.95
2019-05-18T02:39:55.953Z,79.39
2019-05-18T02:40:56.137Z,78.64
2019-05-18T02:41:56.324Z,78.85
2019-05-18T02:42:56.483Z,79.39
2019-05-18T02:43:57.652Z,79.80
2019-05-18T02:44:56.774Z,79.74
2019-05-18T02:45:56.962Z,80.05
2019-05-18T02:46:57.469Z,79.70
2019-05-18T02:47:57.964Z,79.39
2019-05-18T02:48:57.474Z,79.16
2019-05-18T02:49:57.654Z,79.57
2019-05-18T02:50:57.867Z,78.75
2019-05-18T02:51:58.027Z,78.13
2019-05-18T02:52:58.180Z,78.75
2019-05-18T02:53:58.342Z,78.64
2019-05-18T02:54:58.546Z,78.88
2019-05-18T02:55:58.717Z,78.54
2019-05-18T02:56:59.891Z,78.88
2019-05-18T02:57:59.022Z,78.44
2019-05-18T02:58:59.199Z,78.68
2019-05-18T02:59:59.972Z,78.68
2019-05-18T03:00:59.508Z,78.03
2019-05-18T03:02:00.734Z,78.17
2019-05-18T03:02:59.856Z,78.75
2019-05-18T03:04:00.986Z,78.54
2019-05-18T03:05:00.217Z,79.09
2019-05-18T03:06:02.474Z,79.50
2019-05-18T03:07:00.774Z,79.70
2019-05-18T03:08:00.928Z,78.88
2019-05-18T03:09:01.086Z,79.39
2019-05-18T03:10:01.226Z,78.58
2019-05-18T03:11:01.364Z,78.38
2019-05-18T03:12:01.500Z,78.03
2019-05-18T03:13:01.637Z,78.23
2019-05-18T03:14:01.776Z,77.72
2019-05-18T03:15:01.949Z,77.62
2019-05-18T03:16:02.129Z,77.93
2019-05-18T03:17:02.258Z,78.23
2019-05-18T03:18:02.437Z,77.93
2019-05-18T03:19:08.296Z,77.62
2019-05-18T03:20:04.836Z,77.83
2019-05-18T03:21:03.026Z,78.23
2019-05-18T03:22:03.183Z,78.13
2019-05-18T03:23:03.330Z,78.27
2019-05-18T03:24:03.475Z,79.60
2019-05-18T03:25:03.592Z,79.50
2019-05-18T03:26:04.861Z,80.56
2019-05-18T03:27:04.087Z,80.35
2019-05-18T03:28:04.251Z,80.46
2019-05-18T03:29:04.398Z,80.52
2019-05-18T03:30:04.525Z,80.42
2019-05-18T03:31:04.681Z,80.56
2019-05-18T03:32:04.873Z,80.76
2019-05-18T03:33:05.470Z,80.87
2019-05-18T03:34:05.292Z,81.17
2019-05-18T03:35:05.441Z,81.38
2019-05-18T03:36:05.581Z,81.68
2019-05-18T03:37:05.706Z,81.38
2019-05-18T03:38:05.846Z,81.38
2019-05-18T03:39:05.997Z,82.03
2019-05-18T03:40:06.126Z,82.43
2019-05-18T03:41:06.279Z,82.43
2019-05-18T03:42:06.964Z,82.89
2019-05-18T03:43:06.595Z,83.56
2019-05-18T03:44:06.765Z,84.01
2019-05-18T03:45:06.899Z,84.42
2019-05-18T03:46:07.035Z,84.52
2019-05-18T03:47:07.157Z,84.63
2019-05-18T03:48:07.317Z,84.42
2019-05-18T03:49:23.622Z,85.14
2019-05-18T03:50:08.572Z,85.24
2019-05-18T03:51:07.689Z,84.11
2019-05-18T03:52:07.852Z,84.28
2019-05-18T03:53:07.989Z,84.07
2019-05-18T03:54:08.502Z,83.87
2019-05-18T03:55:08.372Z,83.87
2019-05-18T03:56:08.529Z,83.56
2019-05-18T03:57:08.988Z,83.01
2019-05-18T03:58:08.860Z,82.60
2019-05-18T03:59:08.989Z,81.85
2019-05-18T04:00:09.964Z,81.54
2019-05-18T04:01:09.327Z,80.38
2019-05-18T04:02:09.413Z,79.57
2019-05-18T04:03:09.657Z,79.08
2019-05-18T04:04:09.872Z,79.28
2019-05-18T04:05:10.469Z,78.47
2019-05-18T04:06:10.313Z,77.62
2019-05-18T04:07:11.466Z,76.80
2019-05-18T04:08:10.771Z,75.85
2019-05-18T04:09:11.971Z,75.71
2019-05-18T04:10:11.191Z,75.47
2019-05-18T04:11:11.400Z,75.30
2019-05-18T04:12:11.636Z,75.10
2019-05-18T04:13:11.850Z,75.60
2019-05-18T04:14:12.080Z,74.96
2019-05-18T04:15:13.337Z,74.76
2019-05-18T04:16:12.582Z,74.76
2019-05-18T04:17:12.675Z,73.60
2019-05-18T04:18:12.914Z,73.60
2019-05-18T04:19:13.985Z,72.86
2019-05-18T04:20:13.312Z,72.14
2019-05-18T04:21:13.568Z,71.70
2019-05-18T04:22:13.697Z,71.40
2019-05-18T04:23:14.818Z,70.99
2019-05-18T04:24:14.052Z,71.60
2019-05-18T04:25:14.963Z,71.09
2019-05-18T04:26:14.363Z,71.40
2019-05-18T04:27:14.513Z,71.19
2019-05-18T04:28:14.659Z,71.50
2019-05-18T04:29:14.771Z,71.30
2019-05-18T04:30:15.477Z,71.30
2019-05-18T04:31:15.154Z,71.73
2019-05-18T04:32:15.294Z,71.84
2019-05-18T04:33:15.460Z,72.04
2019-05-18T04:34:15.597Z,72.96
2019-05-18T04:35:15.730Z,74.41
2019-05-18T04:36:15.886Z,74.76
2019-05-18T04:37:16.077Z,75.20
2019-05-18T04:38:16.226Z,76.12
2019-05-18T04:39:16.431Z,76.76
2019-05-18T04:40:17.477Z,77.92
2019-05-18T04:41:16.731Z,77.82
2019-05-18T04:42:16.910Z,77.62
2019-05-18T04:43:17.081Z,77.72
2019-05-18T04:44:17.241Z,78.53
2019-05-18T04:45:17.391Z,78.57
2019-05-18T04:46:18.489Z,79.49
2019-05-18T04:47:17.797Z,79.93
2019-05-18T04:48:17.936Z,80.34
2019-05-18T04:49:18.088Z,80.85
2019-05-18T04:50:18.284Z,81.40
2019-05-18T04:51:18.457Z,81.81
2019-05-18T04:52:18.611Z,82.01
2019-05-18T04:53:18.750Z,81.95
2019-05-18T04:54:18.900Z,82.26
2019-05-18T04:55:19.062Z,82.46
2019-05-18T04:56:19.188Z,82.46
2019-05-18T04:57:19.309Z,82.40
2019-05-18T04:58:19.482Z,83.22
2019-05-18T04:59:19.621Z,83.07
2019-05-18T05:00:20.471Z,83.07
2019-05-18T05:01:19.967Z,82.36
2019-05-18T05:02:20.112Z,82.67
2019-05-18T05:03:20.249Z,82.53
2019-05-18T05:04:20.383Z,82.32
2019-05-18T05:05:20.529Z,81.60
2019-05-18T05:06:20.647Z,81.60
2019-05-18T05:07:20.830Z,81.32
2019-05-18T05:08:21.022Z,79.62
2019-05-18T05:09:21.178Z,77.91
2019-05-18T05:10:21.336Z,75.50
2019-05-18T05:11:21.500Z,73.50
2019-05-18T05:12:21.628Z,70.59
2019-05-18T05:13:21.789Z,68.29
2019-05-18T05:14:21.932Z,66.77
2019-05-18T05:15:28.866Z,65.93
2019-05-18T05:16:22.292Z,63.75
2019-05-18T05:17:22.442Z,62.40
2019-05-18T05:18:22.606Z,62.14
2019-05-18T05:19:22.837Z,60.49
2019-05-18T05:20:23.074Z,60.19
2019-05-18T05:21:23.111Z,58.65
2019-05-18T05:22:23.981Z,59.15
2019-05-18T05:23:23.475Z,59.25
2019-05-18T05:24:23.722Z,57.31
2019-05-18T05:25:23.869Z,57.38
2019-05-18T05:26:23.968Z,57.43
2019-05-18T05:27:25.218Z,57.94
2019-05-18T05:28:24.461Z,58.52
2019-05-18T05:29:24.613Z,58.72
2019-05-18T05:30:24.780Z,58.32
2019-05-18T05:31:24.927Z,58.25
2019-05-18T05:32:25.040Z,57.23
2019-05-18T05:33:25.163Z,59.99
2019-05-18T05:34:25.326Z,59.18
2019-05-18T05:35:25.537Z,61.33
2019-05-18T05:36:25.643Z,61.08
2019-05-18T05:37:26.483Z,62.40
2019-05-18T05:38:26.095Z,62.50
2019-05-18T05:39:26.237Z,63.08
2019-05-18T05:40:26.420Z,62.30
2019-05-18T05:41:26.571Z,62.10
2019-05-18T05:42:26.748Z,63.64
2019-05-18T05:43:26.885Z,62.73
2019-05-18T05:44:27.026Z,63.10
2019-05-18T05:45:27.200Z,62.77
2019-05-18T05:46:27.314Z,62.81
2019-05-18T05:47:27.503Z,62.40
2019-05-18T05:48:27.671Z,63.81
2019-05-18T05:49:27.805Z,63.08
2019-05-18T05:50:36.076Z,62.44
2019-05-18T05:51:30.208Z,61.83
2019-05-18T05:52:28.984Z,60.39
2019-05-18T05:53:28.491Z,59.05
2019-05-18T05:54:28.640Z,59.28
2019-05-18T05:55:28.778Z,60.80
2019-05-18T05:56:28.971Z,60.22
2019-05-18T05:57:29.136Z,61.03
2019-05-18T05:58:29.318Z,61.53
2019-05-18T05:59:29.486Z,61.66
2019-05-18T06:00:29.649Z,61.43
2019-05-18T06:01:29.877Z,61.83
2019-05-18T06:02:30.069Z,61.33
2019-05-18T06:03:30.262Z,61.53
2019-05-18T06:04:30.448Z,61.03
2019-05-18T06:05:30.612Z,62.34
2019-05-18T06:06:30.806Z,63.35
2019-05-18T06:07:30.987Z,62.30
2019-05-18T06:08:31.157Z,64.65
2019-05-18T06:09:32.357Z,64.41
2019-05-18T06:10:31.509Z,66.03
2019-05-18T06:11:31.720Z,66.74
2019-05-18T06:12:31.893Z,66.50
2019-05-18T06:13:32.060Z,67.44
2019-05-18T06:14:32.214Z,69.07
2019-05-18T06:15:32.389Z,68.59
2019-05-18T06:16:32.564Z,70.42
2019-05-18T06:17:33.007Z,69.30
2019-05-18T06:18:32.929Z,69.03
2019-05-18T06:19:33.142Z,69.13
2019-05-18T06:20:33.312Z,69.10
2019-05-18T06:21:34.007Z,70.35
2019-05-18T06:22:33.684Z,70.45
2019-05-18T06:23:33.869Z,70.35
2019-05-18T06:24:34.071Z,70.15
2019-05-18T06:25:34.620Z,70.15
2019-05-18T06:26:36.000Z,70.25
2019-05-18T06:27:35.013Z,70.35
2019-05-18T06:28:34.810Z,71.23
2019-05-18T06:29:34.973Z,70.32
2019-05-18T06:30:35.145Z,69.17
2019-05-18T06:31:35.319Z,68.02
2019-05-18T06:32:36.403Z,66.16
2019-05-18T06:33:35.564Z,66.54
2019-05-18T06:34:35.742Z,64.93
2019-05-18T06:35:35.983Z,64.29
2019-05-18T06:36:36.136Z,61.30
2019-05-18T06:37:36.281Z,60.81
2019-05-18T06:38:36.509Z,59.11
2019-05-18T06:39:36.686Z,57.35
2019-05-18T06:40:36.859Z,54.15
2019-05-18T06:41:38.024Z,55.26
2019-05-18T06:42:37.194Z,55.31
2019-05-18T06:43:37.395Z,56.57
2019-05-18T06:44:37.557Z,56.92
2019-05-18T06:45:38.734Z,59.37
2019-05-18T06:46:38.506Z,58.06
2019-05-18T06:47:38.032Z,58.49
2019-05-18T06:48:38.218Z,57.89
2019-05-18T06:49:38.403Z,58.89
2019-05-18T06:50:38.587Z,59.09
2019-05-18T06:51:38.756Z,58.67
2019-05-18T06:52:38.907Z,57.20
2019-05-18T06:53:39.138Z,56.09
2019-05-18T06:54:39.312Z,57.63
2019-05-18T06:55:39.526Z,59.14
2019-05-18T06:56:39.689Z,59.14
2019-05-18T06:57:39.851Z,57.50
2019-05-18T06:58:41.019Z,58.48
2019-05-18T06:59:40.185Z,58.07
2019-05-18T07:00:40.345Z,58.48
2019-05-18T07:01:40.513Z,56.64
2019-05-18T07:02:41.510Z,56.64
2019-05-18T07:03:40.900Z,56.01
2019-05-18T07:04:41.087Z,55.05
2019-05-18T07:05:41.256Z,54.20
2019-05-18T07:06:42.006Z,53.14
2019-05-18T07:07:41.651Z,52.09
2019-05-18T07:08:41.831Z,51.25
2019-05-18T07:09:42.022Z,50.24
2019-05-18T07:10:42.170Z,50.39
2019-05-18T07:11:42.340Z,52.59
2019-05-18T07:12:42.500Z,51.44
2019-05-18T07:13:42.663Z,49.19
2019-05-18T07:14:42.848Z,47.72
2019-05-18T07:15:43.031Z,46.88
2019-05-18T07:16:43.190Z,45.84
2019-05-18T07:17:43.330Z,43.80
2019-05-18T07:18:43.493Z,43.60
2019-05-18T07:19:43.701Z,44.12
2019-05-18T07:20:43.827Z,45.26
2019-05-18T07:21:43.975Z,46.83
2019-05-18T07:22:44.116Z,48.37
2019-05-18T07:23:44.262Z,49.29
2019-05-18T07:24:44.523Z,49.62
2019-05-18T07:25:44.561Z,50.32
2019-05-18T07:26:44.718Z,50.54
2019-05-18T07:27:44.882Z,49.44
2019-05-18T07:28:45.041Z,51.17
2019-05-18T07:29:45.212Z,51.87
2019-05-18T07:30:45.351Z,50.57
2019-05-18T07:31:45.529Z,50.96
2019-05-18T07:32:45.702Z,49.77
2019-05-18T07:33:45.850Z,47.18
2019-05-18T07:34:45.997Z,46.56
2019-05-18T07:35:46.131Z,45.20
2019-05-18T07:36:46.282Z,44.18
2019-05-18T07:37:46.441Z,44.16
2019-05-18T07:38:47.535Z,43.35
2019-05-18T07:39:46.824Z,42.71
2019-05-18T07:40:46.994Z,42.51
2019-05-18T07:41:47.383Z,42.45
2019-05-18T07:42:48.023Z,44.60
2019-05-18T07:43:48.047Z,44.56
2019-05-18T07:44:47.722Z,43.23
2019-05-18T07:45:47.891Z,42.39
2019-05-18T07:46:48.053Z,42.31
2019-05-18T07:47:48.233Z,43.96
2019-05-18T07:48:48.432Z,43.32
2019-05-18T07:49:48.637Z,43.28
2019-05-18T07:50:48.846Z,41.63
2019-05-18T07:51:49.012Z,40.94
2019-05-18T07:52:49.546Z,41.67
2019-05-18T07:53:49.326Z,42.72
2019-05-18T07:54:49.585Z,42.57
2019-05-18T07:55:49.692Z,44.62
2019-05-18T07:56:49.849Z,43.75
2019-05-18T07:57:50.005Z,47.45
2019-05-18T07:58:50.175Z,51.14
2019-05-18T07:59:50.326Z,52.57
2019-05-18T08:00:50.555Z,52.27
2019-05-18T08:01:50.714Z,50.74
2019-05-18T08:02:50.861Z,51.34
2019-05-18T08:03:50.985Z,50.52
2019-05-18T08:04:51.164Z,49.29
2019-05-18T08:05:52.036Z,49.27
2019-05-18T08:06:51.583Z,49.17
2019-05-18T08:07:51.720Z,49.37
2019-05-18T08:08:51.878Z,50.79
2019-05-18T08:09:53.057Z,49.82
2019-05-18T08:10:52.179Z,49.59
2019-05-18T08:11:52.342Z,49.79
2019-05-18T08:12:52.485Z,49.87
2019-05-18T08:13:53.547Z,48.93
2019-05-18T08:14:52.819Z,47.95
2019-05-18T08:15:52.992Z,47.42
2019-05-18T08:16:53.177Z,47.63
2019-05-18T08:17:53.369Z,46.98
2019-05-18T08:18:53.547Z,47.18
2019-05-18T08:19:53.732Z,46.68
2019-05-18T08:20:53.970Z,47.65
2019-05-18T08:21:55.051Z,49.67
2019-05-18T08:22:54.341Z,51.44
2019-05-18T08:23:54.537Z,52.80
2019-05-18T08:24:55.543Z,50.76
2019-05-18T08:25:54.969Z,50.82
2019-05-18T08:26:55.147Z,51.02
2019-05-18T08:27:55.357Z,51.97
2019-05-18T08:28:55.441Z,53.34
2019-05-18T08:29:55.590Z,54.68
2019-05-18T08:30:55.754Z,53.37
2019-05-18T08:31:55.934Z,54.40
2019-05-18T08:32:56.144Z,53.92
2019-05-18T08:33:56.307Z,54.60
2019-05-18T08:34:56.485Z,53.92
2019-05-18T08:35:56.638Z,52.87
2019-05-18T08:36:56.789Z,51.39
2019-05-18T08:37:56.964Z,50.04
2019-05-18T08:38:57.159Z,47.63
2019-05-18T08:39:57.314Z,48.32
2019-05-18T08:40:57.488Z,47.90
2019-05-18T08:41:57.674Z,47.08
2019-05-18T08:42:57.850Z,46.01
2019-05-18T08:43:58.056Z,47.90
2019-05-18T08:44:59.053Z,47.03
2019-05-18T08:45:58.463Z,46.91
2019-05-18T08:46:58.638Z,47.20
2019-05-18T08:47:58.788Z,47.30
2019-05-18T08:48:59.008Z,47.28
2019-05-18T08:50:00.071Z,46.85
2019-05-18T08:50:59.362Z,45.89
2019-05-18T08:52:07.767Z,47.61
2019-05-18T08:53:01.680Z,48.29
2019-05-18T08:53:59.848Z,49.11
2019-05-18T08:55:00.053Z,48.96
2019-05-18T08:56:00.558Z,49.76
2019-05-18T08:57:00.356Z,50.79
2019-05-18T08:58:00.540Z,51.34
2019-05-18T08:59:00.754Z,53.55
2019-05-18T09:00:00.945Z,50.46
2019-05-18T09:01:01.149Z,51.67
2019-05-18T09:02:01.313Z,51.19
2019-05-18T09:03:01.481Z,49.72
2019-05-18T09:04:01.648Z,49.17
2019-05-18T09:05:04.887Z,46.83
2019-05-18T09:06:02.973Z,45.61
2019-05-18T09:07:02.123Z,45.34
2019-05-18T09:08:02.313Z,44.53
2019-05-18T09:09:02.471Z,43.71
2019-05-18T09:10:02.635Z,41.58
2019-05-18T09:11:02.828Z,43.27
2019-05-18T09:12:03.017Z,42.23
2019-05-18T09:13:03.237Z,41.67
2019-05-18T09:14:03.401Z,40.11
2019-05-18T09:15:03.575Z,40.36
2019-05-18T09:16:04.064Z,42.13
2019-05-18T09:17:03.936Z,42.21
2019-05-18T09:18:05.224Z,41.99
2019-05-18T09:19:04.268Z,41.28
2019-05-18T09:20:04.408Z,41.47
2019-05-18T09:21:05.089Z,40.66
2019-05-18T09:22:04.733Z,39.95
2019-05-18T09:23:04.882Z,39.91
2019-05-18T09:24:05.056Z,37.91
2019-05-18T09:25:05.237Z,39.18
2019-05-18T09:26:06.075Z,38.82
2019-05-18T09:27:06.088Z,38.78
2019-05-18T09:28:05.772Z,40.86
2019-05-18T09:29:05.968Z,43.17
2019-05-18T09:30:06.199Z,43.91
2019-05-18T09:31:06.400Z,45.23
2019-05-18T09:32:06.609Z,46.23
2019-05-18T09:33:06.789Z,43.91
2019-05-18T09:34:07.063Z,45.57
2019-05-18T09:35:07.136Z,48.54
2019-05-18T09:36:07.331Z,49.24
2019-05-18T09:37:07.547Z,47.92
2019-05-18T09:38:07.748Z,47.64
2019-05-18T09:39:07.900Z,46.87
2019-05-18T09:40:08.584Z,44.59
2019-05-18T09:41:08.233Z,43.43
2019-05-18T09:42:09.088Z,42.77
2019-05-18T09:43:08.627Z,43.59
2019-05-18T09:44:08.786Z,42.69
2019-05-18T09:45:09.596Z,43.33
2019-05-18T09:46:09.119Z,44.33
2019-05-18T09:47:09.272Z,43.07
2019-05-18T09:48:09.463Z,42.85
2019-05-18T09:49:09.632Z,42.45
2019-05-18T09:50:09.798Z,41.80
2019-05-18T09:51:09.964Z,44.41
2019-05-18T09:52:10.103Z,43.69
2019-05-18T09:53:10.249Z,44.15
2019-05-18T09:54:10.416Z,44.32
2019-05-18T09:55:10.604Z,45.88
2019-05-18T09:56:10.788Z,47.31
2019-05-18T09:57:10.967Z,46.83
2019-05-18T09:58:11.132Z,48.69
2019-05-18T09:59:11.313Z,45.54
2019-05-18T10:00:11.511Z,43.99
2019-05-18T10:01:12.095Z,42.81
2019-05-18T10:02:11.893Z,41.16
2019-05-18T10:03:12.104Z,40.10
2019-05-18T10:04:12.595Z,38.99
2019-05-18T10:05:12.567Z,39.15
2019-05-18T10:06:12.643Z,38.71
2019-05-18T10:07:12.824Z,38.30
2019-05-18T10:08:13.005Z,37.43
2019-05-18T10:09:13.614Z,38.85
2019-05-18T10:10:13.433Z,39.89
2019-05-18T10:11:13.601Z,41.42
2019-05-18T10:12:13.747Z,40.90
2019-05-18T10:13:14.915Z,40.02
2019-05-18T10:14:14.186Z,40.88
2019-05-18T10:15:14.395Z,42.93
2019-05-18T10:16:14.588Z,43.65
2019-05-18T10:17:14.768Z,43.21
2019-05-18T10:18:14.934Z,42.79
2019-05-18T10:19:15.107Z,42.19
2019-05-18T10:20:15.286Z,43.01
2019-05-18T10:21:15.453Z,43.59
2019-05-18T10:22:15.619Z,43.37
2019-05-18T10:23:16.578Z,43.57
2019-05-18T10:24:16.009Z,42.27
2019-05-18T10:25:17.087Z,43.27
2019-05-18T10:26:16.357Z,42.15
2019-05-18T10:27:16.614Z,43.77
2019-05-18T10:28:16.669Z,42.81
2019-05-18T10:29:16.829Z,43.91
2019-05-18T10:30:17.023Z,43.39
2019-05-18T10:31:17.223Z,42.99
2019-05-18T10:32:17.369Z,42.99
2019-05-18T10:33:17.520Z,42.87
2019-05-18T10:34:17.676Z,42.27
2019-05-18T10:35:17.835Z,42.91
2019-05-18T10:36:18.113Z,39.98
2019-05-18T10:37:18.140Z,41.24
2019-05-18T10:38:18.282Z,38.75
2019-05-18T10:39:18.437Z,38.26
2019-05-18T10:40:18.622Z,41.22
2019-05-18T10:41:18.805Z,41.80
2019-05-18T10:42:19.960Z,42.63
2019-05-18T10:43:19.079Z,44.20
2019-05-18T10:44:19.247Z,46.31
2019-05-18T10:45:19.404Z,45.62
2019-05-18T10:46:19.607Z,46.66
2019-05-18T10:47:20.595Z,46.36
2019-05-18T10:48:19.964Z,45.66
2019-05-18T10:49:20.113Z,47.36
2019-05-18T10:50:20.284Z,46.96
2019-05-18T10:51:20.474Z,45.28
2019-05-18T10:52:20.631Z,45.20
2019-05-18T10:53:28.792Z,47.61
2019-05-18T10:54:23.631Z,47.41
2019-05-18T10:55:21.266Z,46.48
2019-05-18T10:56:21.614Z,45.88
2019-05-18T10:57:22.613Z,46.62
2019-05-18T10:58:21.858Z,44.59
2019-05-18T10:59:21.981Z,44.15
2019-05-18T11:00:22.117Z,42.71
2019-05-18T11:01:22.614Z,44.49
2019-05-18T11:02:22.406Z,43.09
2019-05-18T11:03:22.527Z,43.71
2019-05-18T11:04:22.651Z,44.03
2019-05-18T11:05:22.795Z,44.21
2019-05-18T11:06:22.923Z,43.65
2019-05-18T11:07:23.123Z,45.07
2019-05-18T11:08:23.279Z,45.27
2019-05-18T11:09:24.112Z,45.33
2019-05-18T11:10:23.617Z,43.29
2019-05-18T11:11:23.778Z,44.09
2019-05-18T11:12:23.958Z,43.37
2019-05-18T11:13:24.098Z,43.27
2019-05-18T11:14:24.211Z,43.13
2019-05-18T11:15:25.407Z,41.82
2019-05-18T11:16:24.522Z,40.40
2019-05-18T11:17:24.689Z,40.90
2019-05-18T11:18:24.820Z,41.24
2019-05-18T11:19:24.935Z,41.16
2019-05-18T11:20:25.095Z,41.33
2019-05-18T11:21:25.234Z,42.25
2019-05-18T11:22:25.366Z,42.77
2019-05-18T11:23:25.516Z,41.89
2019-05-18T11:24:26.615Z,42.41
2019-05-18T11:25:26.624Z,43.09
2019-05-18T11:26:26.002Z,41.80
2019-05-18T11:27:26.145Z,41.03
2019-05-18T11:28:26.284Z,41.75
2019-05-18T11:29:26.452Z,40.66
2019-05-18T11:30:26.606Z,42.59
2019-05-18T11:31:26.713Z,43.41
2019-05-18T11:32:27.117Z,44.33
2019-05-18T11:33:27.139Z,43.61
2019-05-18T11:34:27.201Z,41.82
2019-05-18T11:35:27.321Z,41.02
2019-05-18T11:36:27.548Z,40.12
2019-05-18T11:37:27.675Z,41.33
2019-05-18T11:38:27.955Z,42.02
2019-05-18T11:39:28.115Z,42.97
2019-05-18T11:40:28.279Z,40.16
2019-05-18T11:41:28.451Z,40.44
2019-05-18T11:42:28.614Z,40.92
2019-05-18T11:43:29.132Z,39.46
2019-05-18T11:44:28.889Z,41.97
2019-05-18T11:45:29.049Z,42.29
2019-05-18T11:46:30.120Z,42.93
2019-05-18T11:47:29.351Z,43.73
2019-05-18T11:48:29.511Z,43.29
2019-05-18T11:49:29.655Z,41.47
2019-05-18T11:50:29.806Z,42.57
2019-05-18T11:51:29.973Z,42.40
2019-05-18T11:52:31.122Z,43.01
2019-05-18T11:53:30.389Z,43.31
2019-05-18T11:54:30.567Z,44.05
2019-05-18T11:55:30.730Z,43.75
2019-05-18T11:56:30.899Z,42.38
2019-05-18T11:57:31.068Z,44.37
2019-05-18T11:58:31.264Z,43.87
2019-05-18T11:59:31.444Z,44.27
2019-05-18T12:00:31.605Z,43.55
2019-05-18T12:01:31.738Z,42.91
2019-05-18T12:02:31.851Z,42.81
2019-05-18T12:03:32.012Z,42.24
2019-05-18T12:04:32.141Z,43.73
2019-05-18T12:05:32.275Z,43.65
2019-05-18T12:06:32.429Z,43.99
2019-05-18T12:07:33.125Z,44.92
2019-05-18T12:08:33.147Z,44.92
2019-05-18T12:09:32.945Z,45.21
2019-05-18T12:10:33.094Z,44.34
2019-05-18T12:11:33.259Z,45.34
2019-05-18T12:12:33.454Z,45.43
2019-05-18T12:13:33.669Z,45.31
2019-05-18T12:14:33.874Z,44.21
2019-05-18T12:15:34.630Z,45.00
2019-05-18T12:16:34.136Z,43.48
2019-05-18T12:17:34.252Z,43.85
2019-05-18T12:18:34.451Z,43.45
2019-05-18T12:19:34.555Z,44.05
2019-05-18T12:20:35.648Z,42.77
2019-05-18T12:21:34.909Z,42.38
2019-05-18T12:22:35.631Z,42.77
2019-05-18T12:23:35.265Z,42.93
2019-05-18T12:24:35.494Z,43.31
2019-05-18T12:25:35.586Z,42.37
2019-05-18T12:26:35.756Z,40.94
2019-05-18T12:27:36.649Z,40.46
2019-05-18T12:28:36.036Z,41.67
2019-05-18T12:29:37.129Z,42.21
2019-05-18T12:30:36.364Z,44.03
2019-05-18T12:31:36.537Z,44.05
2019-05-18T12:32:37.642Z,44.67
2019-05-18T12:33:36.903Z,43.79
2019-05-18T12:34:37.042Z,44.15
2019-05-18T12:35:37.208Z,43.83
2019-05-18T12:36:37.668Z,41.91
2019-05-18T12:37:37.595Z,42.67
2019-05-18T12:38:38.632Z,42.45
2019-05-18T12:39:37.872Z,41.14
2019-05-18T12:40:38.650Z,40.48
2019-05-18T12:41:38.181Z,38.85
2019-05-18T12:42:38.371Z,38.83
2019-05-18T12:43:38.511Z,38.30
2019-05-18T12:44:38.656Z,36.83
2019-05-18T12:45:38.820Z,36.83
2019-05-18T12:46:39.047Z,36.02
2019-05-18T12:47:39.122Z,37.04
2019-05-18T12:48:39.305Z,37.36
2019-05-18T12:49:39.450Z,38.85
2019-05-18T12:50:39.615Z,38.75
2019-05-18T12:51:39.861Z,40.28
2019-05-18T12:52:40.015Z,39.17
2019-05-18T12:53:40.184Z,39.97
2019-05-18T12:54:46.615Z,38.64